Aviation Digital Data Service (ADDS)

Output produced by METARs form (0345 UTC 28 February 2021)
found at http://aviationweather.gov/metar/data/
 
METAR text: KRNT 280253Z 22003KT 10SM OVC080 08/00 A3029 RMK AO2 SLP260 T00830000 53001
Conditions at: KRNT (RENTON , WA, US) observed 0253 UTC 28 February 2021
Temperature: 8.3°C (47°F)
Dewpoint: 0.0°C (32°F) [RH = 56%]
Pressure (altimeter): 30.29 inches Hg (1025.8 mb)
[Sea-level pressure: 1026.0 mb]
Winds: from the SW (220 degrees) at 3 MPH (3 knots; 1.5 m/s)
Visibility: 10 or more miles (16+ km)
Ceiling: 8000 feet AGL
Clouds: overcast cloud deck at 8000 feet AGL
Weather: no significant weather observed at this time

METAR text: KRNT 280153Z 22003KT 10SM SCT049 OVC090 09/M01 A3028 RMK AO2 SLP257 T00891006
Conditions at: KRNT (RENTON , WA, US) observed 0153 UTC 28 February 2021
Temperature: 8.9°C (48°F)
Dewpoint: -0.6°C (31°F) [RH = 51%]
Pressure (altimeter): 30.28 inches Hg (1025.5 mb)
[Sea-level pressure: 1025.7 mb]
Winds: from the SW (220 degrees) at 3 MPH (3 knots; 1.5 m/s)
Visibility: 10 or more miles (16+ km)
Ceiling: 9000 feet AGL
Clouds: scattered clouds at 4900 feet AGL
overcast cloud deck at 9000 feet AGL
Weather: no significant weather observed at this time